createdAt,value
2023-01-13T00:02:19.391Z,-0.70
2023-01-13T00:04:59.928Z,-0.74
2023-01-13T00:07:44.529Z,-0.81
2023-01-13T00:10:23.891Z,-0.76
2023-01-13T00:13:08.242Z,-0.70
2023-01-13T00:15:55.227Z,-0.64
2023-01-13T00:18:39.460Z,-0.67
2023-01-13T00:21:24.135Z,-0.74
2023-01-13T00:24:03.820Z,-0.76
2023-01-13T00:26:45.458Z,-0.77
2023-01-13T00:29:27.459Z,-0.77
2023-01-13T00:32:16.287Z,-0.71
2023-01-13T00:34:57.610Z,-0.58
2023-01-13T00:37:35.349Z,-0.56
2023-01-13T00:40:14.519Z,-0.46
2023-01-13T00:43:05.555Z,-0.36
2023-01-13T00:45:51.552Z,-0.35
2023-01-13T00:48:31.119Z,-0.28
2023-01-13T00:51:07.949Z,-0.36
2023-01-13T00:53:43.878Z,-0.33
2023-01-13T00:56:38.996Z,-0.44
2023-01-13T00:59:39.081Z,-0.31
2023-01-13T01:02:29.214Z,-0.33
2023-01-13T01:05:09.819Z,-0.41
2023-01-13T01:07:48.170Z,-0.44
2023-01-13T01:10:32.357Z,-0.36
2023-01-13T01:13:20.424Z,-0.41
2023-01-13T01:16:01.519Z,-0.34
2023-01-13T01:18:40.222Z,-0.28
2023-01-13T01:21:17.919Z,-0.17
2023-01-13T01:24:02.032Z,-0.08
2023-01-13T01:26:43.912Z,-0.15
2023-01-13T01:29:24.475Z,-0.14
2023-01-13T01:32:09.395Z,-0.06
2023-01-13T01:34:52.580Z,0.06
2023-01-13T01:37:47.297Z,0.15
2023-01-13T01:40:28.419Z,0.27
2023-01-13T01:43:28.486Z,0.30
2023-01-13T01:46:13.082Z,0.47
2023-01-13T01:48:53.903Z,0.63
2023-01-13T01:51:29.770Z,0.60
2023-01-13T01:54:24.644Z,0.53
2023-01-13T01:57:07.533Z,0.46
2023-01-13T01:59:56.595Z,0.47
2023-01-13T02:02:41.916Z,0.39
2023-01-13T02:05:22.550Z,0.30
2023-01-13T02:08:09.299Z,0.24
2023-01-13T02:10:51.993Z,0.37
2023-01-13T02:13:40.725Z,0.41
2023-01-13T02:16:30.224Z,0.41
2023-01-13T02:19:32.332Z,0.52
2023-01-13T02:22:42.338Z,0.63
2023-01-13T02:25:46.493Z,0.59
2023-01-13T02:29:16.804Z,0.51
2023-01-13T02:31:59.689Z,0.44
2023-01-13T02:34:39.285Z,0.47
2023-01-13T02:37:28.827Z,0.53
2023-01-13T02:40:25.989Z,0.47
2023-01-13T02:43:31.593Z,0.49
2023-01-13T02:46:41.409Z,0.50
2023-01-13T02:49:35.594Z,0.60
2023-01-13T02:52:24.891Z,0.70
2023-01-13T02:55:12.322Z,0.80
2023-01-13T02:57:56.119Z,0.80
2023-01-13T03:00:34.980Z,0.85
2023-01-13T03:03:18.918Z,0.96
2023-01-13T03:06:10.862Z,1.02
2023-01-13T03:09:00.648Z,1.07
2023-01-13T03:12:05.565Z,1.14
2023-01-13T03:14:53.340Z,1.22
2023-01-13T03:17:44.320Z,1.16
2023-01-13T03:20:27.971Z,1.17
2023-01-13T03:23:27.165Z,1.27
2023-01-13T03:26:22.265Z,1.23
2023-01-13T03:29:17.223Z,1.16
2023-01-13T03:32:07.798Z,1.04
2023-01-13T03:34:56.467Z,1.00
2023-01-13T03:37:57.235Z,0.97
2023-01-13T03:40:37.080Z,0.93
2023-01-13T03:43:34.773Z,0.82
2023-01-13T03:46:20.152Z,0.74
2023-01-13T03:48:55.880Z,0.78
2023-01-13T03:51:39.211Z,0.69
2023-01-13T03:54:23.381Z,0.84
2023-01-13T03:57:18.122Z,0.89
2023-01-13T04:00:07.400Z,0.80
2023-01-13T04:03:00.829Z,0.73
2023-01-13T04:05:36.645Z,0.64
2023-01-13T04:08:34.218Z,0.51
2023-01-13T04:11:28.361Z,0.70
2023-01-13T04:14:12.100Z,0.65
2023-01-13T04:17:05.919Z,0.57
2023-01-13T04:19:50.024Z,0.52
2023-01-13T04:22:28.175Z,0.48
2023-01-13T04:25:11.834Z,0.42
2023-01-13T04:28:03.699Z,0.39
2023-01-13T04:30:53.244Z,0.35
2023-01-13T04:33:34.656Z,0.39
2023-01-13T04:36:13.731Z,0.33
2023-01-13T04:39:07.762Z,0.24
2023-01-13T04:41:58.208Z,0.13
2023-01-13T04:44:41.661Z,0.21
2023-01-13T04:47:27.941Z,0.20
2023-01-13T04:50:18.568Z,0.07
2023-01-13T04:53:10.448Z,0.05
2023-01-13T04:55:47.940Z,-0.04
2023-01-13T04:58:34.615Z,-0.11
2023-01-13T05:01:24.774Z,-0.08
2023-01-13T05:04:15.504Z,-0.01
2023-01-13T05:06:50.809Z,-0.06
2023-01-13T05:09:36.517Z,0.15
2023-01-13T05:12:34.175Z,0.01
2023-01-13T05:15:40.370Z,-0.09
2023-01-13T05:18:19.167Z,-0.13
2023-01-13T05:21:03.354Z,-0.06
2023-01-13T05:24:04.786Z,-0.05
2023-01-13T05:26:54.229Z,-0.09
2023-01-13T05:29:34.923Z,-0.25
2023-01-13T05:32:21.339Z,-0.05
2023-01-13T05:35:07.372Z,-0.19
2023-01-13T05:37:53.634Z,-0.17
2023-01-13T05:40:45.527Z,-0.23
2023-01-13T05:43:25.016Z,-0.35
2023-01-13T05:46:11.968Z,-0.35
2023-01-13T05:48:50.796Z,-0.32
2023-01-13T05:51:42.927Z,-0.40
2023-01-13T05:54:29.469Z,-0.42
2023-01-13T05:57:15.646Z,-0.47
2023-01-13T05:59:55.678Z,-0.47
2023-01-13T06:02:37.020Z,-0.42
2023-01-13T06:05:09.849Z,-0.45
2023-01-13T06:08:01.531Z,-0.45
2023-01-13T06:10:37.183Z,-0.44
2023-01-13T06:13:16.098Z,-0.17
2023-01-13T06:15:56.886Z,-0.38
2023-01-13T06:18:41.380Z,-0.28
2023-01-13T06:21:18.744Z,-0.29
2023-01-13T06:23:59.225Z,-0.26
2023-01-13T06:26:31.885Z,-0.22
2023-01-13T06:29:10.160Z,-0.18
2023-01-13T06:31:45.960Z,-0.09
2023-01-13T06:34:35.411Z,0.08
2023-01-13T06:37:14.042Z,-0.06
2023-01-13T06:39:55.570Z,-0.02
2023-01-13T06:42:52.200Z,-0.12
2023-01-13T06:45:26.828Z,0.01
2023-01-13T06:48:07.429Z,0.06
2023-01-13T06:50:47.704Z,0.06
2023-01-13T06:53:28.322Z,0.13
2023-01-13T06:56:09.078Z,0.11
2023-01-13T06:58:47.286Z,0.22
2023-01-13T07:01:28.376Z,0.11
2023-01-13T07:04:11.639Z,0.22
2023-01-13T07:06:55.469Z,0.15
2023-01-13T07:09:30.609Z,0.12
2023-01-13T07:12:07.381Z,0.10
2023-01-13T07:14:58.033Z,0.11
2023-01-13T07:17:33.252Z,0.07
2023-01-13T07:20:18.016Z,0.06
2023-01-13T07:23:02.815Z,0.09
2023-01-13T07:25:44.033Z,0.16
2023-01-13T07:28:16.772Z,0.25
2023-01-13T07:30:59.886Z,0.31
2023-01-13T07:33:38.419Z,0.37
2023-01-13T07:36:19.668Z,0.50
2023-01-13T07:38:58.669Z,0.36
2023-01-13T07:41:57.592Z,0.47
2023-01-13T07:44:35.063Z,0.50
2023-01-13T07:47:17.669Z,0.52
2023-01-13T07:50:00.449Z,0.59
2023-01-13T07:52:32.495Z,0.62
2023-01-13T07:55:10.057Z,0.64
2023-01-13T07:58:01.531Z,0.72
2023-01-13T08:00:39.441Z,0.76
2023-01-13T08:03:27.921Z,0.91
2023-01-13T08:06:07.171Z,0.91
2023-01-13T08:08:43.219Z,0.93
2023-01-13T08:11:18.331Z,1.04
2023-01-13T08:14:14.115Z,1.07
2023-01-13T08:16:55.512Z,1.14
2023-01-13T08:19:30.703Z,1.13
2023-01-13T08:22:09.012Z,1.20
2023-01-13T08:24:52.757Z,1.23
2023-01-13T08:27:27.989Z,1.08
2023-01-13T08:30:05.707Z,1.18
2023-01-13T08:32:51.177Z,1.28
2023-01-13T08:35:31.057Z,1.29
2023-01-13T08:38:03.108Z,1.27
2023-01-13T08:40:44.050Z,1.24
2023-01-13T08:43:21.774Z,1.23
2023-01-13T08:46:19.710Z,1.44
2023-01-13T08:49:00.992Z,1.56
2023-01-13T08:51:44.931Z,1.70
2023-01-13T08:54:25.648Z,1.83
2023-01-13T08:56:57.334Z,1.88
2023-01-13T08:59:32.504Z,1.83
2023-01-13T09:02:27.033Z,1.88
2023-01-13T09:05:03.004Z,1.99
2023-01-13T09:07:42.293Z,2.12
2023-01-13T09:10:12.278Z,2.33
2023-01-13T09:13:05.741Z,2.51
2023-01-13T09:15:48.904Z,2.66
2023-01-13T09:18:29.150Z,2.72
2023-01-13T09:21:07.232Z,2.83
2023-01-13T09:23:49.041Z,3.01
2023-01-13T09:26:32.853Z,3.16
2023-01-13T09:29:09.809Z,3.22
2023-01-13T09:31:59.010Z,3.39
2023-01-13T09:34:46.041Z,3.42
2023-01-13T09:37:32.570Z,3.53
2023-01-13T09:40:09.760Z,3.49
2023-01-13T09:43:17.889Z,3.55
2023-01-13T09:45:59.226Z,3.58
2023-01-13T09:48:52.071Z,3.76
2023-01-13T09:51:35.407Z,3.68
2023-01-13T09:54:12.435Z,3.77
2023-01-13T09:56:47.746Z,3.65
2023-01-13T09:59:29.057Z,3.68
2023-01-13T10:02:28.938Z,3.68
2023-01-13T10:05:16.459Z,3.56
2023-01-13T10:08:11.108Z,3.50
2023-01-13T10:10:59.647Z,3.52
2023-01-13T10:13:35.471Z,3.57
2023-01-13T10:16:26.995Z,3.51
2023-01-13T10:19:09.032Z,3.51
2023-01-13T10:22:11.191Z,3.56
2023-01-13T10:25:05.347Z,3.59
2023-01-13T10:27:43.325Z,3.74
2023-01-13T10:30:31.672Z,3.88
2023-01-13T10:33:27.699Z,4.01
2023-01-13T10:36:13.182Z,4.07
2023-01-13T10:38:56.175Z,4.15
2023-01-13T10:41:38.005Z,4.24
2023-01-13T10:44:32.863Z,4.25
2023-01-13T10:47:28.880Z,4.22
2023-01-13T10:50:27.367Z,4.31
2023-01-13T10:53:22.419Z,4.24
2023-01-13T10:56:18.265Z,4.26
2023-01-13T10:58:50.887Z,4.44
2023-01-13T11:01:37.778Z,4.60
2023-01-13T11:04:36.332Z,4.84
2023-01-13T11:07:34.475Z,4.93
2023-01-13T11:10:26.164Z,5.09
2023-01-13T11:13:33.445Z,4.96
2023-01-13T11:16:31.411Z,5.26
2023-01-13T11:19:15.195Z,5.27
2023-01-13T11:22:04.350Z,5.09
2023-01-13T11:25:01.832Z,4.93
2023-01-13T11:27:52.797Z,4.94
2023-01-13T11:30:42.905Z,4.73
2023-01-13T11:33:18.801Z,4.78
2023-01-13T11:36:01.299Z,4.85
2023-01-13T11:38:48.005Z,4.89
2023-01-13T11:41:29.148Z,4.95
2023-01-13T11:44:17.922Z,4.88
2023-01-13T11:47:04.727Z,4.68
2023-01-13T11:49:42.645Z,4.74
2023-01-13T11:52:33.081Z,4.72
2023-01-13T11:55:37.644Z,4.57
2023-01-13T11:58:15.918Z,4.75
2023-01-13T12:01:05.464Z,4.87
2023-01-13T12:03:48.288Z,4.79
2023-01-13T12:06:48.756Z,4.88
2023-01-13T12:09:47.668Z,4.91
2023-01-13T12:12:47.538Z,4.99
2023-01-13T12:15:50.740Z,4.71
2023-01-13T12:19:24.666Z,4.87
2023-01-13T12:22:23.662Z,4.83
2023-01-13T12:25:18.283Z,4.96
2023-01-13T12:28:20.387Z,4.89
2023-01-13T12:31:11.471Z,4.70
2023-01-13T12:34:14.680Z,4.88
2023-01-13T12:36:58.611Z,4.87
2023-01-13T12:39:37.097Z,4.76
2023-01-13T12:42:31.304Z,4.68
2023-01-13T12:45:13.057Z,4.66
2023-01-13T12:47:55.072Z,4.54
2023-01-13T12:50:30.988Z,4.71
2023-01-13T12:53:00.214Z,4.77
2023-01-13T12:55:43.535Z,4.65
2023-01-13T12:58:17.487Z,4.72
2023-01-13T13:00:49.592Z,4.76
2023-01-13T13:03:37.962Z,4.90
2023-01-13T13:06:24.134Z,4.73
2023-01-13T13:09:07.884Z,4.64
2023-01-13T13:12:03.359Z,4.70
2023-01-13T13:15:08.327Z,4.86
2023-01-13T13:18:02.454Z,4.83
2023-01-13T13:21:04.543Z,4.79
2023-01-13T13:23:44.406Z,4.77
2023-01-13T13:26:45.757Z,4.85
2023-01-13T13:32:39.546Z,4.95
2023-01-13T13:35:56.430Z,5.01
2023-01-13T13:39:08.917Z,5.03
2023-01-13T13:42:10.232Z,4.93
2023-01-13T13:45:06.261Z,4.90
2023-01-13T13:47:46.843Z,4.69
2023-01-13T13:50:29.584Z,4.70
2023-01-13T13:53:09.344Z,4.73
2023-01-13T13:56:01.237Z,4.74
2023-01-13T13:58:37.435Z,4.61
2023-01-13T14:01:09.681Z,4.52
2023-01-13T14:03:42.305Z,4.55
2023-01-13T14:06:29.973Z,4.50
2023-01-13T14:09:24.177Z,4.50
2023-01-13T14:12:07.925Z,4.61
2023-01-13T14:14:52.158Z,4.62
2023-01-13T14:17:37.269Z,4.72
2023-01-13T14:20:20.609Z,4.62
2023-01-13T14:23:01.604Z,4.59
2023-01-13T14:25:51.845Z,4.59
2023-01-13T14:28:29.215Z,4.61
2023-01-13T14:31:10.322Z,4.64
2023-01-13T14:33:53.063Z,4.49
2023-01-13T14:36:42.851Z,4.52
2023-01-13T14:39:21.056Z,4.65
2023-01-13T14:41:54.912Z,4.57
2023-01-13T14:44:36.150Z,4.43
2023-01-13T14:47:28.104Z,4.38
2023-01-13T14:50:16.497Z,4.43
2023-01-13T14:53:04.237Z,4.43
2023-01-13T14:55:43.436Z,4.35
2023-01-13T14:58:28.627Z,4.39
2023-01-13T15:01:28.414Z,4.38
2023-01-13T15:04:28.108Z,4.34
2023-01-13T15:07:13.008Z,4.33
2023-01-13T15:09:51.219Z,4.34
2023-01-13T15:12:43.439Z,4.21
2023-01-13T15:15:38.808Z,4.26
2023-01-13T15:18:19.809Z,4.28
2023-01-13T15:20:58.287Z,4.31
2023-01-13T15:23:35.672Z,4.30
2023-01-13T15:26:11.380Z,4.33
2023-01-13T15:28:50.065Z,4.32
2023-01-13T15:31:34.235Z,4.27
2023-01-13T15:34:09.448Z,4.25
2023-01-13T15:36:44.880Z,4.17
2023-01-13T15:39:25.705Z,4.27
2023-01-13T15:42:22.859Z,4.33
2023-01-13T15:45:23.368Z,4.24
2023-01-13T15:48:04.657Z,4.25
2023-01-13T15:50:50.730Z,4.23
2023-01-13T15:53:33.639Z,4.14
2023-01-13T15:56:23.742Z,4.07
2023-01-13T15:58:59.309Z,4.13
2023-01-13T16:01:32.284Z,4.01
2023-01-13T16:04:14.373Z,3.99
2023-01-13T16:06:53.263Z,4.16
2023-01-13T16:09:28.866Z,4.08
2023-01-13T16:12:09.261Z,4.11
2023-01-13T16:14:52.000Z,4.06
2023-01-13T16:17:32.150Z,4.20
2023-01-13T16:20:12.600Z,4.00
2023-01-13T16:22:45.551Z,4.04
2023-01-13T16:25:39.263Z,4.05
2023-01-13T16:28:28.317Z,4.06
2023-01-13T16:31:35.699Z,4.12
2023-01-13T16:34:11.572Z,4.07
2023-01-13T16:36:46.317Z,4.06
2023-01-13T16:39:38.154Z,4.06
2023-01-13T16:42:08.134Z,3.98
2023-01-13T16:44:51.969Z,4.13
2023-01-13T16:47:32.167Z,4.07
2023-01-13T16:50:11.326Z,4.00
2023-01-13T16:52:47.445Z,4.09
2023-01-13T16:55:28.632Z,4.10
2023-01-13T16:58:04.336Z,4.13
2023-01-13T17:00:41.555Z,4.10
2023-01-13T17:03:19.192Z,4.07
2023-01-13T17:05:55.056Z,3.99
2023-01-13T17:08:38.837Z,4.02
2023-01-13T17:11:14.053Z,3.93
2023-01-13T17:13:49.312Z,3.94
2023-01-13T17:16:31.628Z,3.99
2023-01-13T17:19:09.447Z,4.07
2023-01-13T17:21:47.143Z,4.07
2023-01-13T17:24:25.987Z,4.13
2023-01-13T17:27:10.013Z,4.10
2023-01-13T17:29:45.687Z,4.14
2023-01-13T17:32:24.790Z,4.13
2023-01-13T17:35:02.711Z,4.06
2023-01-13T17:37:38.388Z,4.17
2023-01-13T17:40:11.692Z,4.01
2023-01-13T17:42:46.984Z,4.08
2023-01-13T17:45:37.282Z,3.99
2023-01-13T17:48:09.847Z,4.03
2023-01-13T17:50:52.368Z,4.01
2023-01-13T17:53:30.694Z,3.97
2023-01-13T17:56:14.584Z,3.88
2023-01-13T17:58:46.980Z,3.95
2023-01-13T18:01:23.128Z,3.91
2023-01-13T18:04:07.284Z,3.87
2023-01-13T18:06:45.197Z,3.88
2023-01-13T18:09:17.995Z,3.80
2023-01-13T18:11:53.304Z,3.76
2023-01-13T18:14:28.578Z,3.89
2023-01-13T18:17:06.319Z,3.83
2023-01-13T18:19:59.811Z,3.87
2023-01-13T18:22:53.675Z,3.74
2023-01-13T18:26:07.459Z,3.62
2023-01-13T18:28:44.264Z,3.77
2023-01-13T18:31:24.928Z,3.67
2023-01-13T18:34:03.317Z,3.74
2023-01-13T18:36:46.461Z,3.72
2023-01-13T18:39:22.114Z,3.64
2023-01-13T18:42:13.481Z,3.87
2023-01-13T18:44:48.228Z,3.73
2023-01-13T18:47:23.300Z,3.78
2023-01-13T18:49:58.313Z,3.68
2023-01-13T18:52:31.578Z,3.71
2023-01-13T18:55:12.592Z,3.69
2023-01-13T18:57:42.762Z,3.71
2023-01-13T19:00:23.421Z,3.69
2023-01-13T19:05:40.892Z,3.87
2023-01-13T19:08:18.913Z,3.83
2023-01-13T19:11:04.405Z,3.83
2023-01-13T19:13:52.478Z,3.80
2023-01-13T19:16:30.746Z,3.87
2023-01-13T19:19:08.360Z,3.96
2023-01-13T19:21:43.811Z,3.87
2023-01-13T19:24:21.579Z,3.82
2023-01-13T19:27:07.365Z,3.86
2023-01-13T19:29:53.631Z,3.86
2023-01-13T19:32:29.048Z,3.86
2023-01-13T19:35:02.411Z,3.82
2023-01-13T19:37:46.440Z,3.85
2023-01-13T19:40:24.185Z,3.69
2023-01-13T19:43:20.650Z,3.84
2023-01-13T19:46:04.930Z,3.84
2023-01-13T19:48:32.448Z,3.78
2023-01-13T19:51:09.248Z,3.82
2023-01-13T19:53:47.515Z,3.87
2023-01-13T19:56:18.648Z,3.83
2023-01-13T19:58:50.924Z,3.92
2023-01-13T20:01:36.400Z,3.91
2023-01-13T20:04:17.177Z,3.90
2023-01-13T20:07:13.738Z,4.00
2023-01-13T20:10:01.332Z,3.97
2023-01-13T20:12:42.811Z,4.02
2023-01-13T20:15:27.332Z,3.95
2023-01-13T20:18:05.455Z,3.94
2023-01-13T20:20:53.558Z,4.05
2023-01-13T20:23:41.710Z,3.97
2023-01-13T20:26:24.845Z,3.99
2023-01-13T20:29:06.311Z,4.05
2023-01-13T20:31:45.152Z,4.07
2023-01-13T20:34:20.578Z,4.06
2023-01-13T20:36:59.331Z,4.20
2023-01-13T20:39:46.575Z,4.16
2023-01-13T20:42:31.729Z,4.19
2023-01-13T20:45:23.991Z,4.06
2023-01-13T20:48:05.704Z,3.94
2023-01-13T20:50:46.283Z,3.82
2023-01-13T20:53:25.434Z,3.88
2023-01-13T20:56:09.793Z,3.94
2023-01-13T20:58:47.763Z,3.93
2023-01-13T21:01:30.916Z,3.88
2023-01-13T21:04:10.208Z,4.00
2023-01-13T21:06:53.878Z,3.98
2023-01-13T21:09:34.318Z,3.90
2023-01-13T21:12:25.901Z,3.93
2023-01-13T21:15:21.994Z,3.95
2023-01-13T21:18:13.142Z,3.92
2023-01-13T21:21:08.734Z,3.92
2023-01-13T21:23:42.529Z,3.93
2023-01-13T21:26:19.724Z,3.98
2023-01-13T21:28:56.049Z,4.00
2023-01-13T21:31:32.780Z,4.00
2023-01-13T21:34:30.545Z,3.99
2023-01-13T21:37:16.157Z,4.03
2023-01-13T21:39:59.876Z,4.10
2023-01-13T21:42:53.988Z,4.00
2023-01-13T21:45:46.083Z,3.92
2023-01-13T21:48:28.739Z,3.90
2023-01-13T21:51:25.231Z,3.88
2023-01-13T21:54:12.579Z,4.00
2023-01-13T21:56:53.737Z,3.90
2023-01-13T21:59:40.679Z,3.91
2023-01-13T22:02:32.397Z,3.88
2023-01-13T22:05:23.018Z,3.92
2023-01-13T22:07:58.678Z,3.94
2023-01-13T22:11:17.676Z,3.97
2023-01-13T22:14:10.156Z,4.08
2023-01-13T22:16:50.044Z,4.11
2023-01-13T22:19:27.113Z,4.19
2023-01-13T22:22:08.993Z,4.10
2023-01-13T22:24:42.441Z,4.06
2023-01-13T22:27:42.721Z,4.03
2023-01-13T22:30:26.689Z,4.13
2023-01-13T22:33:10.601Z,4.12
2023-01-13T22:35:48.732Z,4.02
2023-01-13T22:38:32.410Z,4.14
2023-01-13T22:41:14.687Z,4.16
2023-01-13T22:43:50.299Z,4.12
2023-01-13T22:46:30.897Z,4.06
2023-01-13T22:49:16.912Z,4.09
2023-01-13T22:51:58.532Z,3.98
2023-01-13T22:54:39.027Z,4.04
2023-01-13T22:57:47.666Z,4.05
2023-01-13T23:00:25.041Z,4.03
2023-01-13T23:02:57.664Z,4.02
2023-01-13T23:05:38.852Z,4.09
2023-01-13T23:08:14.293Z,4.06
2023-01-13T23:10:54.653Z,4.17
2023-01-13T23:13:40.338Z,4.13
2023-01-13T23:16:21.125Z,4.08
2023-01-13T23:19:05.012Z,4.07
2023-01-13T23:21:42.740Z,4.05
2023-01-13T23:24:28.027Z,4.07
2023-01-13T23:27:08.385Z,4.07
2023-01-13T23:29:49.237Z,4.03
2023-01-13T23:32:25.467Z,4.05
2023-01-13T23:35:12.842Z,4.10
2023-01-13T23:37:50.547Z,4.09
2023-01-13T23:40:33.777Z,4.05
2023-01-13T23:43:07.410Z,4.10
2023-01-13T23:45:47.346Z,4.06
2023-01-13T23:48:28.633Z,3.92
2023-01-13T23:51:16.403Z,4.01
2023-01-13T23:53:58.149Z,4.09
2023-01-13T23:56:35.095Z,4.04
2023-01-13T23:59:08.226Z,3.94
